createdAt,value
2018-08-18T00:01:30.536Z,3.47
2018-08-18T00:03:58.076Z,4.07
2018-08-18T00:06:25.215Z,4.53
2018-08-18T00:08:52.476Z,3.60
2018-08-18T00:11:19.924Z,3.53
2018-08-18T00:13:53.732Z,4.00
2018-08-18T00:16:24.901Z,4.00
2018-08-18T00:19:00.857Z,3.70
2018-08-18T00:21:29.644Z,3.23
2018-08-18T00:24:12.793Z,4.20
2018-08-18T00:26:39.987Z,3.63
2018-08-18T00:29:08.435Z,4.23
2018-08-18T00:31:37.567Z,3.73
2018-08-18T00:34:04.745Z,4.27
2018-08-18T00:36:31.935Z,3.67
2018-08-18T00:39:00.070Z,4.40
2018-08-18T00:41:28.697Z,5.90
2018-08-18T00:43:56.660Z,4.60
2018-08-18T00:46:25.398Z,4.07
2018-08-18T00:48:52.511Z,3.50
2018-08-18T00:51:22.150Z,4.47
2018-08-18T00:53:49.244Z,4.17
2018-08-18T00:56:16.344Z,3.80
2018-08-18T00:58:53.167Z,3.73
2018-08-18T01:01:20.337Z,4.53
2018-08-18T01:03:54.024Z,3.60
2018-08-18T01:06:38.726Z,3.67
2018-08-18T01:09:10.760Z,4.27
2018-08-18T01:11:38.174Z,3.97
2018-08-18T01:14:13.200Z,3.50
2018-08-18T01:16:46.009Z,4.03
2018-08-18T01:19:13.177Z,5.47
2018-08-18T01:21:44.891Z,4.40
2018-08-18T01:24:12.153Z,4.30
2018-08-18T01:26:39.340Z,3.70
2018-08-18T01:29:12.867Z,3.93
2018-08-18T01:31:40.032Z,4.73
2018-08-18T01:34:07.450Z,4.13
2018-08-18T01:36:34.564Z,3.90
2018-08-18T01:39:01.737Z,4.97
2018-08-18T01:41:28.952Z,4.17
2018-08-18T01:44:12.479Z,5.43
2018-08-18T01:46:40.106Z,4.17
2018-08-18T01:49:22.058Z,4.30
2018-08-18T01:51:49.181Z,4.60
2018-08-18T01:54:16.816Z,7.57
2018-08-18T01:56:44.836Z,4.20
2018-08-18T01:59:11.950Z,7.13
2018-08-18T02:01:39.076Z,8.03
2018-08-18T02:04:06.579Z,4.70
2018-08-18T02:06:33.764Z,4.37
2018-08-18T02:09:00.919Z,4.63
2018-08-18T02:11:28.104Z,3.63
2018-08-18T02:13:56.025Z,4.20
2018-08-18T02:16:25.219Z,3.93
2018-08-18T02:18:52.401Z,4.30
2018-08-18T02:21:27.333Z,5.27
2018-08-18T02:23:54.608Z,4.10
2018-08-18T02:26:21.729Z,4.37
2018-08-18T02:28:48.864Z,10.30
2018-08-18T02:31:16.012Z,4.83
2018-08-18T02:33:43.121Z,6.83
2018-08-18T02:36:10.293Z,3.87
2018-08-18T02:38:40.069Z,5.23
2018-08-18T02:41:07.265Z,4.37
2018-08-18T02:43:34.429Z,4.60
2018-08-18T02:46:16.404Z,4.23
2018-08-18T02:48:43.571Z,3.63
2018-08-18T02:51:10.665Z,4.87
2018-08-18T02:53:37.867Z,4.83
2018-08-18T02:56:05.047Z,4.90
2018-08-18T02:58:32.157Z,4.33
2018-08-18T03:00:59.265Z,5.67
2018-08-18T03:03:26.416Z,4.63
2018-08-18T03:05:57.187Z,4.93
2018-08-18T03:08:24.308Z,4.73
2018-08-18T03:10:51.455Z,7.23
2018-08-18T03:13:18.580Z,5.40
2018-08-18T03:15:52.503Z,6.00
2018-08-18T03:18:31.649Z,4.23
2018-08-18T03:20:59.694Z,5.60
2018-08-18T03:23:34.219Z,5.20
2018-08-18T03:26:01.428Z,5.37
2018-08-18T03:28:30.958Z,5.70
2018-08-18T03:30:58.089Z,5.47
2018-08-18T03:33:25.267Z,5.43
2018-08-18T03:35:52.456Z,5.27
2018-08-18T03:38:19.581Z,5.97
2018-08-18T03:40:46.671Z,5.40
2018-08-18T03:43:13.758Z,6.63
2018-08-18T03:45:40.925Z,6.67
2018-08-18T03:48:08.181Z,6.70
2018-08-18T03:50:46.405Z,6.23
2018-08-18T03:53:18.134Z,7.03
2018-08-18T03:55:45.323Z,7.00
2018-08-18T03:58:12.538Z,6.37
2018-08-18T04:00:40.260Z,7.67
2018-08-18T04:03:07.439Z,7.73
2018-08-18T04:05:34.557Z,7.77
2018-08-18T04:08:01.700Z,6.93
2018-08-18T04:10:28.849Z,7.67
2018-08-18T04:12:57.789Z,7.43
2018-08-18T04:15:24.952Z,7.30
2018-08-18T04:17:52.083Z,7.90
2018-08-18T04:20:19.225Z,7.20
2018-08-18T04:22:46.340Z,7.97
2018-08-18T04:25:13.515Z,6.87
2018-08-18T04:27:44.178Z,7.47
2018-08-18T04:30:13.395Z,6.67
2018-08-18T04:32:49.883Z,6.57
2018-08-18T04:35:18.234Z,7.10
2018-08-18T04:37:45.273Z,7.67
2018-08-18T04:40:12.414Z,8.17
2018-08-18T04:42:40.271Z,7.20
2018-08-18T04:45:07.391Z,6.90
2018-08-18T04:47:34.583Z,6.60
2018-08-18T04:50:02.296Z,7.00
2018-08-18T04:52:29.400Z,6.97
2018-08-18T04:54:56.536Z,6.60
2018-08-18T04:57:23.691Z,6.37
2018-08-18T04:59:50.883Z,8.17
2018-08-18T05:02:18.044Z,6.83
2018-08-18T05:04:45.161Z,7.57
2018-08-18T05:07:12.277Z,7.67
2018-08-18T05:09:39.385Z,8.00
2018-08-18T05:12:06.555Z,8.83
2018-08-18T05:14:33.704Z,8.27
2018-08-18T05:17:00.824Z,7.97
2018-08-18T05:19:27.968Z,12.63
2018-08-18T05:24:30.292Z,11.50
2018-08-18T05:26:59.057Z,10.57
2018-08-18T05:29:26.207Z,9.50
2018-08-18T05:31:53.335Z,10.07
2018-08-18T05:34:20.516Z,7.67
2018-08-18T05:36:47.628Z,9.40
2018-08-18T05:39:14.803Z,9.93
2018-08-18T05:41:41.985Z,8.27
2018-08-18T05:44:09.114Z,9.63
2018-08-18T05:46:36.283Z,10.33
2018-08-18T05:49:18.557Z,10.43
2018-08-18T05:51:48.010Z,10.60
2018-08-18T05:54:30.176Z,10.87
2018-08-18T05:56:57.293Z,10.33
2018-08-18T05:59:24.428Z,10.20
2018-08-18T06:01:51.656Z,8.90
2018-08-18T06:04:20.131Z,9.43
2018-08-18T06:06:47.904Z,11.03
2018-08-18T06:09:16.303Z,11.43
2018-08-18T06:11:43.572Z,10.90
2018-08-18T06:14:11.502Z,10.67
2018-08-18T06:16:38.980Z,12.57
2018-08-18T06:19:06.262Z,10.47
2018-08-18T06:21:33.454Z,10.90
2018-08-18T06:24:00.605Z,9.37
2018-08-18T06:26:27.806Z,9.90
2018-08-18T06:28:55.352Z,9.03
2018-08-18T06:31:22.568Z,8.50
2018-08-18T06:33:49.713Z,8.40
2018-08-18T06:36:16.843Z,9.70
2018-08-18T06:38:44.003Z,8.77
2018-08-18T06:41:11.251Z,8.40
2018-08-18T06:43:38.346Z,8.50
2018-08-18T06:46:05.530Z,7.50
2018-08-18T06:48:36.678Z,8.17
2018-08-18T06:51:03.989Z,6.67
2018-08-18T06:53:36.948Z,6.60
2018-08-18T06:56:04.102Z,7.30
2018-08-18T06:58:31.302Z,7.47
2018-08-18T07:00:58.564Z,6.43
2018-08-18T07:03:33.672Z,7.30
2018-08-18T07:06:01.526Z,6.30
2018-08-18T07:08:28.982Z,7.13
2018-08-18T07:10:56.113Z,6.93
2018-08-18T07:13:23.377Z,6.63
2018-08-18T07:15:50.511Z,7.30
2018-08-18T07:18:17.712Z,6.40
2018-08-18T07:20:44.844Z,6.20
2018-08-18T07:23:12.060Z,6.10
2018-08-18T07:25:45.961Z,6.80
2018-08-18T07:28:13.240Z,6.20
2018-08-18T07:30:40.433Z,5.80
2018-08-18T07:33:07.622Z,10.80
2018-08-18T07:35:34.780Z,5.73
2018-08-18T07:38:01.997Z,6.50
2018-08-18T07:40:36.624Z,6.20
2018-08-18T07:43:05.204Z,5.97
2018-08-18T07:45:32.908Z,5.10
2018-08-18T07:48:00.179Z,4.70
2018-08-18T07:50:27.375Z,5.10
2018-08-18T07:52:54.737Z,5.57
2018-08-18T07:55:21.880Z,5.10
2018-08-18T07:57:54.685Z,5.20
2018-08-18T08:00:21.900Z,4.60
2018-08-18T08:02:49.049Z,4.77
2018-08-18T08:05:17.124Z,9.23
2018-08-18T08:07:44.253Z,4.90
2018-08-18T08:10:11.440Z,4.17
2018-08-18T08:12:38.755Z,4.73
2018-08-18T08:15:05.828Z,4.57
2018-08-18T08:17:33.016Z,4.43
2018-08-18T08:20:00.284Z,5.07
2018-08-18T08:22:27.423Z,5.40
2018-08-18T08:24:54.613Z,4.20
2018-08-18T08:27:21.872Z,6.67
2018-08-18T08:29:49.013Z,4.33
2018-08-18T08:32:16.323Z,4.83
2018-08-18T08:34:46.399Z,4.80
2018-08-18T08:37:14.818Z,3.77
2018-08-18T08:39:42.513Z,4.80
2018-08-18T08:42:09.675Z,5.17
2018-08-18T08:44:36.852Z,5.50
2018-08-18T08:47:06.998Z,4.63
2018-08-18T08:49:34.165Z,3.70
2018-08-18T08:52:01.325Z,5.20
2018-08-18T08:54:30.455Z,4.93
2018-08-18T08:56:57.630Z,5.77
2018-08-18T08:59:24.752Z,4.10
2018-08-18T09:01:51.904Z,4.90
2018-08-18T09:04:19.152Z,5.03
2018-08-18T09:06:52.784Z,5.00
2018-08-18T09:09:20.376Z,4.93
2018-08-18T09:11:47.750Z,4.30
2018-08-18T09:14:14.917Z,5.13
2018-08-18T09:16:42.085Z,4.10
2018-08-18T09:19:09.282Z,4.47
2018-08-18T09:21:42.240Z,4.40
2018-08-18T09:24:09.412Z,4.80
2018-08-18T09:26:42.350Z,4.60
2018-08-18T09:29:09.813Z,4.60
2018-08-18T09:31:37.036Z,6.63
2018-08-18T09:34:04.164Z,4.63
2018-08-18T09:36:31.312Z,5.10
2018-08-18T09:38:58.480Z,4.87
2018-08-18T09:41:25.565Z,4.67
2018-08-18T09:43:52.718Z,5.77
2018-08-18T09:46:19.899Z,5.40
2018-08-18T09:48:47.661Z,5.20
2018-08-18T09:51:14.803Z,4.57
2018-08-18T09:53:41.968Z,5.03
2018-08-18T09:56:09.146Z,5.47
2018-08-18T09:58:36.507Z,5.30
2018-08-18T10:01:03.751Z,4.27
2018-08-18T10:03:31.286Z,4.93
2018-08-18T10:05:58.650Z,5.50
2018-08-18T10:08:25.856Z,4.33
2018-08-18T10:10:53.041Z,4.90
2018-08-18T10:13:20.243Z,4.43
2018-08-18T10:15:47.476Z,4.27
2018-08-18T10:18:14.640Z,5.70
2018-08-18T10:20:47.520Z,5.23
2018-08-18T10:23:14.673Z,4.63
2018-08-18T10:25:41.825Z,5.17
2018-08-18T10:28:09.407Z,5.00
2018-08-18T10:30:36.556Z,4.50
2018-08-18T10:33:04.076Z,5.20
2018-08-18T10:35:31.549Z,5.50
2018-08-18T10:38:00.173Z,5.33
2018-08-18T10:40:27.327Z,4.67
2018-08-18T10:42:55.097Z,4.73
2018-08-18T10:45:22.259Z,4.93
2018-08-18T10:47:49.374Z,4.87
2018-08-18T10:51:26.694Z,5.30
2018-08-18T10:53:54.167Z,5.00
2018-08-18T10:56:21.744Z,5.23
2018-08-18T10:59:05.750Z,5.43
2018-08-18T11:01:33.133Z,4.60
2018-08-18T11:04:00.554Z,4.93
2018-08-18T11:06:32.268Z,4.57
2018-08-18T11:08:59.537Z,5.07
2018-08-18T11:11:26.721Z,4.63
2018-08-18T11:13:54.876Z,4.73
2018-08-18T11:16:22.088Z,4.43
2018-08-18T11:18:49.367Z,6.63
2018-08-18T11:21:18.139Z,4.73
2018-08-18T11:23:45.394Z,5.77
2018-08-18T11:26:12.628Z,4.40
2018-08-18T11:28:39.940Z,4.20
2018-08-18T11:31:06.919Z,5.13
2018-08-18T11:33:42.323Z,4.90
2018-08-18T11:36:10.360Z,4.63
2018-08-18T11:38:37.559Z,5.73
2018-08-18T11:41:04.795Z,4.43
2018-08-18T11:43:34.697Z,4.90
2018-08-18T11:46:04.171Z,4.90
2018-08-18T11:48:31.372Z,4.90
2018-08-18T11:50:58.453Z,5.23
2018-08-18T11:53:25.564Z,14.17
2018-08-18T11:55:52.713Z,4.90
2018-08-18T11:58:21.014Z,5.17
2018-08-18T12:00:50.443Z,4.30
2018-08-18T12:03:20.258Z,4.77
2018-08-18T12:05:49.517Z,3.73
2018-08-18T12:08:20.037Z,4.40
2018-08-18T12:10:48.454Z,5.60
2018-08-18T12:13:15.769Z,4.97
2018-08-18T12:15:56.997Z,4.63
2018-08-18T12:18:26.061Z,5.00
2018-08-18T12:20:54.839Z,4.83
2018-08-18T12:23:22.021Z,4.33
2018-08-18T12:25:54.886Z,4.70
2018-08-18T12:28:24.171Z,5.10
2018-08-18T12:30:51.313Z,4.63
2018-08-18T12:33:19.211Z,5.17
2018-08-18T12:35:47.565Z,3.90
2018-08-18T12:38:14.871Z,5.70
2018-08-18T12:40:42.063Z,4.97
2018-08-18T12:43:09.252Z,4.80
2018-08-18T12:45:36.648Z,6.20
2018-08-18T12:48:05.953Z,4.20
2018-08-18T12:50:33.263Z,4.33
2018-08-18T12:53:00.465Z,4.40
2018-08-18T12:55:27.673Z,5.43
2018-08-18T12:57:55.572Z,4.83
2018-08-18T13:00:22.912Z,4.93
2018-08-18T13:02:51.965Z,5.50
2018-08-18T13:05:21.783Z,7.53
2018-08-18T13:07:48.978Z,5.13
2018-08-18T13:10:21.244Z,4.33
2018-08-18T13:12:49.216Z,5.07
2018-08-18T13:15:16.716Z,5.83
2018-08-18T13:17:43.969Z,4.80
2018-08-18T13:20:13.184Z,4.83
2018-08-18T13:22:40.354Z,4.87
2018-08-18T13:25:07.510Z,5.20
2018-08-18T13:27:39.465Z,4.30
2018-08-18T13:30:06.661Z,5.33
2018-08-18T13:32:33.813Z,5.13
2018-08-18T13:35:00.970Z,5.10
2018-08-18T13:37:28.163Z,5.63
2018-08-18T13:39:55.341Z,5.93
2018-08-18T13:42:24.265Z,4.70
2018-08-18T13:44:52.080Z,4.83
2018-08-18T13:47:19.367Z,5.13
2018-08-18T13:49:49.828Z,4.73
2018-08-18T13:52:17.020Z,5.63
2018-08-18T13:54:49.952Z,5.17
2018-08-18T13:57:21.726Z,5.27
2018-08-18T13:59:48.889Z,5.10
2018-08-18T14:02:16.091Z,8.60
2018-08-18T14:04:43.509Z,4.60
2018-08-18T14:07:10.991Z,5.90
2018-08-18T14:09:43.100Z,4.90
2018-08-18T14:12:16.766Z,6.07
2018-08-18T14:14:44.629Z,6.30
2018-08-18T14:17:12.684Z,4.53
2018-08-18T14:19:39.841Z,5.33
2018-08-18T14:22:08.571Z,4.53
2018-08-18T14:24:36.913Z,6.63
2018-08-18T14:27:07.492Z,4.57
2018-08-18T14:29:34.690Z,6.67
2018-08-18T14:32:04.320Z,4.90
2018-08-18T14:34:31.451Z,5.03
2018-08-18T14:37:04.189Z,6.00
2018-08-18T14:39:35.663Z,5.00
2018-08-18T14:42:02.846Z,6.13
2018-08-18T14:44:30.120Z,6.10
2018-08-18T14:46:57.310Z,5.23
2018-08-18T14:49:24.457Z,5.20
2018-08-18T14:51:51.648Z,6.03
2018-08-18T14:54:22.946Z,8.23
2018-08-18T14:56:50.096Z,5.37
2018-08-18T14:59:17.279Z,7.33
2018-08-18T15:01:44.454Z,5.30
2018-08-18T15:04:11.584Z,5.40
2018-08-18T15:06:38.752Z,6.07
2018-08-18T15:09:05.898Z,5.70
2018-08-18T15:11:33.192Z,6.93
2018-08-18T15:14:00.483Z,5.13
2018-08-18T15:16:27.636Z,9.57
2018-08-18T15:18:54.780Z,5.97
2018-08-18T15:21:21.940Z,5.57
2018-08-18T15:23:49.080Z,5.20
2018-08-18T15:26:16.196Z,5.90
2018-08-18T15:28:43.349Z,7.70
2018-08-18T15:31:10.488Z,5.60
2018-08-18T15:33:37.617Z,5.07
2018-08-18T15:36:15.028Z,5.33
2018-08-18T15:38:43.623Z,6.47
2018-08-18T15:41:11.194Z,6.00
2018-08-18T15:43:38.803Z,5.97
2018-08-18T15:46:06.075Z,5.80
2018-08-18T15:48:33.800Z,5.60
2018-08-18T15:51:00.957Z,5.77
2018-08-18T15:53:40.224Z,5.37
2018-08-18T15:56:07.520Z,6.50
2018-08-18T15:58:34.654Z,5.63
2018-08-18T16:01:01.884Z,5.53
2018-08-18T16:03:29.001Z,5.80
2018-08-18T16:05:56.121Z,5.77
2018-08-18T16:08:23.263Z,5.43
2018-08-18T16:10:50.423Z,4.90
2018-08-18T16:13:17.589Z,5.57
2018-08-18T16:15:44.896Z,6.50
2018-08-18T16:18:12.060Z,5.70
2018-08-18T16:20:39.220Z,5.73
2018-08-18T16:23:10.984Z,5.23
2018-08-18T16:25:39.247Z,4.83
2018-08-18T16:28:08.159Z,4.77
2018-08-18T16:30:36.288Z,6.13
2018-08-18T16:33:19.348Z,5.83
2018-08-18T16:35:46.654Z,6.03
2018-08-18T16:38:13.867Z,5.20
2018-08-18T16:40:41.138Z,6.30
2018-08-18T16:43:09.929Z,8.47
2018-08-18T16:45:37.164Z,6.10
2018-08-18T16:48:05.270Z,6.37
2018-08-18T16:50:33.208Z,6.53
2018-08-18T16:53:01.967Z,6.43
2018-08-18T16:55:30.146Z,5.47
2018-08-18T16:57:57.370Z,6.30
2018-08-18T17:00:24.612Z,6.03
2018-08-18T17:02:51.767Z,4.87
2018-08-18T17:05:18.911Z,6.53
2018-08-18T17:07:46.063Z,4.93
2018-08-18T17:10:13.324Z,5.13
2018-08-18T17:12:40.444Z,5.10
2018-08-18T17:15:07.929Z,4.57
2018-08-18T17:17:35.105Z,5.77
2018-08-18T17:20:02.444Z,4.80
2018-08-18T17:22:29.628Z,5.10
2018-08-18T17:24:56.796Z,5.53
2018-08-18T17:27:26.579Z,5.57
2018-08-18T17:29:53.756Z,4.97
2018-08-18T17:32:20.917Z,6.43
2018-08-18T17:34:48.077Z,6.57
2018-08-18T17:37:15.261Z,6.83
2018-08-18T17:39:42.534Z,6.70
2018-08-18T17:42:09.661Z,6.93
2018-08-18T17:44:36.820Z,8.60
2018-08-18T17:47:07.240Z,7.60
2018-08-18T17:49:43.396Z,10.87
2018-08-18T17:52:11.079Z,7.70
2018-08-18T17:54:38.770Z,7.00
2018-08-18T17:57:06.452Z,8.23
2018-08-18T17:59:34.207Z,7.20
2018-08-18T18:02:10.660Z,7.53
2018-08-18T18:04:38.023Z,8.40
2018-08-18T18:07:05.505Z,7.63
2018-08-18T18:09:33.732Z,7.77
2018-08-18T18:12:30.576Z,7.40
2018-08-18T18:14:57.853Z,7.20
2018-08-18T18:17:25.583Z,7.77
2018-08-18T18:19:55.609Z,7.97
2018-08-18T18:22:22.740Z,7.73
2018-08-18T18:24:50.112Z,8.57
2018-08-18T18:27:17.659Z,8.73
2018-08-18T18:29:45.080Z,7.73
2018-08-18T18:32:13.019Z,7.37
2018-08-18T18:34:40.909Z,7.97
2018-08-18T18:37:08.171Z,7.80
2018-08-18T18:39:54.186Z,7.53
2018-08-18T18:42:21.419Z,7.47
2018-08-18T18:44:49.013Z,7.93
2018-08-18T18:47:16.294Z,6.73
2018-08-18T18:49:43.467Z,6.83
2018-08-18T18:52:11.031Z,7.93
2018-08-18T18:54:38.247Z,9.20
2018-08-18T18:57:05.925Z,7.87
2018-08-18T18:59:36.141Z,7.07
2018-08-18T19:02:03.363Z,6.80
2018-08-18T19:04:30.529Z,7.20
2018-08-18T19:07:01.285Z,7.77
2018-08-18T19:09:28.550Z,8.93
2018-08-18T19:11:55.764Z,7.80
2018-08-18T19:14:22.993Z,7.80
2018-08-18T19:16:50.596Z,7.90
2018-08-18T19:19:18.637Z,8.13
2018-08-18T19:21:45.822Z,8.63
2018-08-18T19:24:20.489Z,7.73
2018-08-18T19:26:51.468Z,8.13
2018-08-18T19:29:20.363Z,8.10
2018-08-18T19:31:54.541Z,8.00
2018-08-18T19:34:21.841Z,8.20
2018-08-18T19:37:03.054Z,7.87
2018-08-18T19:39:31.568Z,7.63
2018-08-18T19:42:05.438Z,7.87
2018-08-18T19:44:35.489Z,8.67
2018-08-18T19:47:02.658Z,7.80
2018-08-18T19:49:41.551Z,7.80
2018-08-18T19:52:12.280Z,8.30
2018-08-18T19:54:44.531Z,7.13
2018-08-18T19:57:12.044Z,8.30
2018-08-18T19:59:39.494Z,8.07
2018-08-18T20:02:07.024Z,8.03
2018-08-18T20:04:34.232Z,8.63
2018-08-18T20:07:01.458Z,8.30
2018-08-18T20:09:28.648Z,7.27
2018-08-18T20:11:56.073Z,8.23
2018-08-18T20:14:23.308Z,8.63
2018-08-18T20:16:50.961Z,7.73
2018-08-18T20:19:19.679Z,8.60
2018-08-18T20:21:47.328Z,8.37
2018-08-18T20:24:15.007Z,9.30
2018-08-18T20:26:42.575Z,10.20
2018-08-18T20:29:10.266Z,9.00
2018-08-18T20:31:42.090Z,8.83
2018-08-18T20:34:09.299Z,10.10
2018-08-18T20:36:36.529Z,11.43
2018-08-18T20:39:06.584Z,11.67
2018-08-18T20:41:33.792Z,12.57
2018-08-18T20:44:01.166Z,10.87
2018-08-18T20:46:28.884Z,11.03
2018-08-18T20:48:56.243Z,9.37
2018-08-18T20:51:29.437Z,9.17
2018-08-18T20:53:56.712Z,10.20
2018-08-18T20:56:23.874Z,10.67
2018-08-18T20:58:51.107Z,10.97
2018-08-18T21:01:18.777Z,10.90
2018-08-18T21:03:49.371Z,11.00
2018-08-18T21:06:18.272Z,10.00
2018-08-18T21:08:46.421Z,10.57
2018-08-18T21:11:14.727Z,10.47
2018-08-18T21:13:46.273Z,11.33
2018-08-18T21:16:14.557Z,11.50
2018-08-18T21:18:42.371Z,10.90
2018-08-18T21:21:29.942Z,11.23
2018-08-18T21:23:57.265Z,10.57
2018-08-18T21:26:24.459Z,9.30
2018-08-18T21:28:53.603Z,10.17
2018-08-18T21:31:27.138Z,10.67
2018-08-18T21:33:55.548Z,13.27
2018-08-18T21:36:22.812Z,10.43
2018-08-18T21:38:49.941Z,9.60
2018-08-18T21:41:17.359Z,16.70
2018-08-18T21:43:45.179Z,11.57
2018-08-18T21:46:12.439Z,10.80
2018-08-18T21:48:50.112Z,11.00
2018-08-18T21:51:19.715Z,11.80
2018-08-18T21:53:47.851Z,11.60
2018-08-18T21:56:15.044Z,11.03
2018-08-18T21:58:42.333Z,11.17
2018-08-18T22:01:15.187Z,14.77
2018-08-18T22:03:42.538Z,11.03
2018-08-18T22:06:09.700Z,11.17
2018-08-18T22:08:36.837Z,11.77
2018-08-18T22:11:04.236Z,10.30
2018-08-18T22:13:35.860Z,10.73
2018-08-18T22:16:03.217Z,11.80
2018-08-18T22:18:30.364Z,11.80
2018-08-18T22:20:57.499Z,11.03
2018-08-18T22:25:59.352Z,10.63
2018-08-18T22:28:26.492Z,11.30
2018-08-18T22:30:54.628Z,11.70
2018-08-18T22:33:21.825Z,12.40
2018-08-18T22:35:53.521Z,12.27
2018-08-18T22:38:20.664Z,15.30
2018-08-18T22:40:47.814Z,11.17
2018-08-18T22:43:15.660Z,11.13
2018-08-18T22:45:42.800Z,11.07
2018-08-18T22:48:10.296Z,11.97
2018-08-18T22:50:37.467Z,12.70
2018-08-18T22:53:04.633Z,12.50
2018-08-18T22:55:31.740Z,12.80
2018-08-18T22:58:00.934Z,12.13
2018-08-18T23:00:28.275Z,11.90
2018-08-18T23:02:55.512Z,11.53
2018-08-18T23:05:22.685Z,12.97
2018-08-18T23:07:52.227Z,11.83
2018-08-18T23:10:19.428Z,12.23
2018-08-18T23:12:46.579Z,11.90
2018-08-18T23:15:13.756Z,13.60
2018-08-18T23:17:40.885Z,14.03
2018-08-18T23:20:08.063Z,12.40
2018-08-18T23:22:52.292Z,13.10
2018-08-18T23:25:19.716Z,14.53
2018-08-18T23:27:46.973Z,13.10
2018-08-18T23:30:16.361Z,13.50
2018-08-18T23:32:43.508Z,16.63
2018-08-18T23:35:10.735Z,14.80
2018-08-18T23:37:37.949Z,12.40
2018-08-18T23:40:05.075Z,12.70
2018-08-18T23:42:32.258Z,13.90
2018-08-18T23:47:33.572Z,13.10
2018-08-18T23:50:00.724Z,12.93
2018-08-18T23:52:27.846Z,14.23
2018-08-18T23:54:54.973Z,13.03
2018-08-18T23:57:22.116Z,13.60
2018-08-18T23:59:49.689Z,12.63
